Time;durP1;ratioP1;P1;durP2;ratioP2;P2;SDS_P1;SDS_P2;PMS_P1;PMS_P2;Temp;Humidity;BMP_temperature;BMP_pressure;BME280_temperature;BME280_humidity;BME280_pressure;Samples;Min_cycle;Max_cycle;Signal;HPM_P1;HPM_P2
2022/05/14 00:00:07;;;;;;;24.15;4.13;;;13.10;99.90;;;;;;4249033;27;20046;-83
2022/05/14 00:02:08;;;;;;;13.18;2.95;;;13.20;99.90;;;;;;4248822;27;20411;-83
2022/05/14 00:04:10;;;;;;;14.63;3.28;;;13.10;99.90;;;;;;4248756;27;20039;-83
2022/05/14 00:06:15;;;;;;;12.63;3.08;;;13.10;99.90;;;;;;4248975;27;20039;-82
2022/05/14 00:08:16;;;;;;;13.30;3.03;;;13.10;99.90;;;;;;4230401;28;20043;-83
2022/05/14 00:10:20;;;;;;;15.55;3.97;;;13.10;99.90;;;;;;4247242;27;20057;-83
2022/05/14 00:14:42;;;;;;;20.00;3.30;;;13.10;99.90;;;;;;4248844;27;20055;-83
2022/05/14 00:16:43;;;;;;;16.50;3.53;;;13.10;99.90;;;;;;4248943;27;20150;-83
2022/05/14 00:18:44;;;;;;;13.00;2.83;;;13.10;99.90;;;;;;4231028;28;20160;-83
2022/05/14 00:20:45;;;;;;;18.67;3.80;;;13.10;99.90;;;;;;4248771;27;20055;-83
2022/05/14 00:22:46;;;;;;;9.48;3.10;;;13.00;99.90;;;;;;4248353;27;20043;-83
2022/05/14 00:24:55;;;;;;;14.57;3.28;;;13.00;99.90;;;;;;4230213;28;20051;-83
2022/05/14 00:26:56;;;;;;;14.52;3.00;;;12.90;99.90;;;;;;4230308;28;20044;-83
2022/05/14 00:28:58;;;;;;;16.17;2.88;;;13.00;99.90;;;;;;4248636;27;20039;-83
2022/05/14 00:30:59;;;;;;;20.63;4.90;;;12.90;99.90;;;;;;4248617;27;20063;-83
2022/05/14 00:32:59;;;;;;;14.05;3.47;;;12.80;99.90;;;;;;4246839;27;20533;-83
2022/05/14 00:35:00;;;;;;;19.08;4.15;;;12.90;99.90;;;;;;4248302;27;20039;-84
2022/05/14 00:37:01;;;;;;;13.75;3.47;;;12.80;99.90;;;;;;4248129;27;20043;-84
2022/05/14 00:39:04;;;;;;;16.27;3.50;;;12.80;99.90;;;;;;4248291;27;20035;-83
2022/05/14 00:41:07;;;;;;;17.90;3.58;;;12.70;99.90;;;;;;4248299;27;20046;-82
2022/05/14 00:43:09;;;;;;;13.85;3.85;;;12.70;99.90;;;;;;4229927;28;20051;-83
2022/05/14 00:45:12;;;;;;;18.63;3.80;;;12.70;99.90;;;;;;4248336;27;20045;-83
2022/05/14 00:47:16;;;;;;;21.42;3.20;;;12.70;99.90;;;;;;4247950;27;20125;-84
2022/05/14 00:49:21;;;;;;;14.43;4.43;;;12.70;99.90;;;;;;4248148;27;20518;-84
2022/05/14 00:51:29;;;;;;;12.38;3.05;;;12.70;99.90;;;;;;4248213;27;20053;-84
2022/05/14 00:53:36;;;;;;;13.75;3.03;;;12.60;99.90;;;;;;4230372;28;20042;-84
2022/05/14 00:55:40;;;;;;;19.25;5.40;;;12.70;99.90;;;;;;4248001;27;20088;-84
2022/05/14 00:57:41;;;;;;;20.17;4.40;;;12.70;99.90;;;;;;4248196;27;20039;-84
2022/05/14 00:59:43;;;;;;;15.85;2.95;;;12.70;99.90;;;;;;4247905;27;20051;-83
2022/05/14 01:01:45;;;;;;;11.98;2.72;;;12.50;99.90;;;;;;4248165;27;20456;-82
2022/05/14 01:03:46;;;;;;;16.77;3.30;;;12.70;99.90;;;;;;4247862;27;20046;-83
2022/05/14 01:05:48;;;;;;;18.98;4.75;;;12.60;99.90;;;;;;4247814;27;20039;-83
2022/05/14 01:07:51;;;;;;;15.57;4.15;;;12.60;99.90;;;;;;4247980;27;20458;-83
2022/05/14 01:09:57;;;;;;;21.63;4.00;;;12.70;99.90;;;;;;4246921;27;20039;-83
2022/05/14 01:11:58;;;;;;;20.33;5.47;;;12.60;99.90;;;;;;4247974;27;20096;-83
2022/05/14 01:13:58;;;;;;;14.65;3.25;;;12.60;99.90;;;;;;4247758;27;20035;-83
2022/05/14 01:16:02;;;;;;;19.17;4.07;;;12.60;99.90;;;;;;4229547;28;20047;-83
2022/05/14 01:18:03;;;;;;;22.88;3.63;;;12.60;99.90;;;;;;4247896;27;20087;-83
2022/05/14 01:20:04;;;;;;;16.85;4.40;;;12.60;99.90;;;;;;4245999;27;20083;-83
2022/05/14 01:22:34;;;;;;;23.60;4.40;;;12.50;99.90;;;;;;4247793;27;20114;-83
2022/05/14 01:27:10;;;;;;;19.50;4.28;;;12.60;99.90;;;;;;4247485;27;20129;-83
2022/05/14 01:29:20;;;;;;;18.50;4.03;;;12.50;99.90;;;;;;4247362;27;20039;-83
2022/05/14 01:31:21;;;;;;;13.70;3.67;;;12.50;99.90;;;;;;4247922;27;20099;-84
2022/05/14 01:33:21;;;;;;;26.48;4.55;;;12.50;99.90;;;;;;4247682;27;20436;-83
2022/05/14 01:35:22;;;;;;;20.15;5.40;;;12.50;99.90;;;;;;4246345;27;20117;-84
2022/05/14 01:37:24;;;;;;;20.27;4.05;;;12.50;99.90;;;;;;4229624;28;20545;-83
2022/05/14 01:39:25;;;;;;;13.57;3.80;;;12.50;99.90;;;;;;4247678;27;20039;-83
2022/05/14 01:41:26;;;;;;;29.27;4.28;;;12.50;99.90;;;;;;4247808;28;20483;-83
2022/05/14 01:43:28;;;;;;;17.02;4.22;;;12.50;99.90;;;;;;4247235;28;20099;-83
2022/05/14 01:45:28;;;;;;;26.83;4.88;;;12.50;99.90;;;;;;4246561;28;20051;-83
2022/05/14 01:47:34;;;;;;;18.92;4.65;;;12.50;99.90;;;;;;4247376;28;20066;-83
2022/05/14 01:49:36;;;;;;;20.40;5.03;;;12.50;99.90;;;;;;4247670;28;20047;-83
2022/05/14 01:51:38;;;;;;;31.17;5.78;;;12.50;99.90;;;;;;4247705;28;20126;-84
2022/05/14 01:53:38;;;;;;;20.20;4.78;;;12.40;99.90;;;;;;4247199;28;20035;-84
2022/05/14 01:55:39;;;;;;;20.65;4.70;;;12.40;99.90;;;;;;4248032;28;20051;-83
2022/05/14 01:57:40;;;;;;;21.65;5.85;;;12.40;99.90;;;;;;4229309;28;20051;-83
2022/05/14 01:59:41;;;;;;;24.58;4.97;;;12.40;99.90;;;;;;4230738;28;20104;-84
2022/05/14 02:01:41;;;;;;;24.30;4.07;;;12.40;99.90;;;;;;4248765;28;20043;-83
2022/05/14 02:03:45;;;;;;;12.82;3.55;;;12.40;99.90;;;;;;4248137;28;20043;-84
2022/05/14 02:05:46;;;;;;;20.30;5.78;;;12.40;99.90;;;;;;4248796;28;20475;-82
2022/05/14 02:07:46;;;;;;;25.90;6.07;;;12.40;99.90;;;;;;4247844;28;20031;-83
2022/05/14 02:09:47;;;;;;;22.45;4.10;;;12.40;99.90;;;;;;4247613;28;20145;-83
2022/05/14 02:11:48;;;;;;;23.02;4.82;;;12.30;99.90;;;;;;4247327;28;20035;-83
2022/05/14 02:13:51;;;;;;;25.58;4.93;;;12.30;99.90;;;;;;4247065;28;20046;-83
2022/05/14 02:15:53;;;;;;;22.55;4.07;;;;;;;;;;4247471;28;20051;-83
2022/05/14 02:17:57;;;;;;;28.40;5.35;;;;;;;;;;4229093;28;20089;-84
2022/05/14 02:19:58;;;;;;;23.35;4.97;;;;;;;;;;4247228;27;20507;-83
2022/05/14 02:21:59;;;;;;;31.02;5.72;;;12.30;99.90;;;;;;4249964;27;20457;-83
2022/05/14 02:24:00;;;;;;;24.60;6.60;;;12.20;99.90;;;;;;4250624;27;20035;-83
2022/05/14 02:26:01;;;;;;;23.08;4.88;;;12.10;99.90;;;;;;4250356;27;20043;-83
2022/05/14 02:28:02;;;;;;;22.30;4.65;;;12.10;99.90;;;;;;4251017;27;20062;-83
2022/05/14 02:30:03;;;;;;;24.63;5.55;;;12.10;99.90;;;;;;4250725;27;20126;-83
2022/05/14 02:32:04;;;;;;;20.27;4.47;;;12.10;99.90;;;;;;4250464;27;20058;-83
2022/05/14 02:34:05;;;;;;;19.40;5.28;;;12.10;99.90;;;;;;4248746;27;20085;-83
2022/05/14 02:36:07;;;;;;;34.03;4.85;;;12.00;99.90;;;;;;4249918;27;20043;-83
2022/05/14 02:38:08;;;;;;;26.95;5.50;;;12.00;99.90;;;;;;4250375;27;20091;-84
2022/05/14 02:40:10;;;;;;;26.98;5.75;;;12.10;99.90;;;;;;4250348;27;20483;-84
2022/05/14 02:42:10;;;;;;;18.17;4.68;;;12.00;99.90;;;;;;4250358;27;20092;-84
2022/05/14 02:44:11;;;;;;;26.48;5.65;;;11.90;99.90;;;;;;4250283;27;20047;-84
2022/05/14 02:46:12;;;;;;;31.50;5.57;;;12.00;99.90;;;;;;4250202;27;20130;-83
2022/05/14 02:48:13;;;;;;;33.00;6.45;;;12.00;99.90;;;;;;4250299;27;20066;-83
2022/05/14 02:50:14;;;;;;;32.63;6.03;;;11.90;99.90;;;;;;4231389;28;20052;-82
2022/05/14 02:52:15;;;;;;;29.58;6.07;;;11.90;99.90;;;;;;4249922;27;20061;-83
2022/05/14 02:54:15;;;;;;;27.23;4.45;;;11.90;99.90;;;;;;4250289;27;20118;-84
2022/05/14 02:56:16;;;;;;;27.67;6.90;;;11.90;99.90;;;;;;4250159;27;20126;-83
2022/05/14 02:59:06;;;;;;;23.38;5.43;;;11.80;99.90;;;;;;4231688;28;20051;-84
2022/05/14 03:00:38;;;;;;;27.73;5.13;;;11.80;99.90;;;;;;4249463;27;20043;-84
2022/05/14 03:02:38;;;;;;;23.65;4.93;;;11.80;99.90;;;;;;4249992;27;20100;-84
2022/05/14 03:04:40;;;;;;;23.15;5.85;;;11.80;99.90;;;;;;4250161;27;20124;-84
2022/05/14 03:06:41;;;;;;;27.48;5.65;;;11.80;99.90;;;;;;4250056;27;20122;-84
2022/05/14 03:08:41;;;;;;;34.50;6.10;;;11.70;99.90;;;;;;4250005;27;20043;-84
2022/05/14 03:10:42;;;;;;;29.80;7.07;;;11.70;99.90;;;;;;4249750;27;20126;-84
2022/05/14 03:12:43;;;;;;;23.17;5.68;;;11.70;99.90;;;;;;4249868;27;20035;-84
2022/05/14 03:14:44;;;;;;;30.02;5.88;;;11.70;99.90;;;;;;4249840;27;20117;-84
2022/05/14 03:16:45;;;;;;;32.20;4.50;;;11.70;99.90;;;;;;4249945;27;20043;-84
2022/05/14 03:18:46;;;;;;;25.17;5.25;;;11.70;99.90;;;;;;4248489;27;20035;-84
2022/05/14 03:20:47;;;;;;;30.95;6.72;;;11.70;99.90;;;;;;4248133;27;20095;-84
2022/05/14 03:22:48;;;;;;;23.65;6.15;;;11.70;99.90;;;;;;4249863;27;20110;-84
2022/05/14 03:24:49;;;;;;;24.58;5.82;;;11.80;99.90;;;;;;4249599;27;20039;-84
2022/05/14 03:26:50;;;;;;;37.17;5.60;;;11.60;99.90;;;;;;4249593;27;20040;-84
2022/05/14 03:28:50;;;;;;;27.05;5.85;;;11.60;99.90;;;;;;4249499;27;20039;-84
2022/05/14 03:30:51;;;;;;;18.85;4.78;;;11.60;99.90;;;;;;4249495;27;20050;-84
2022/05/14 03:32:53;;;;;;;26.80;6.28;;;11.60;99.90;;;;;;4247908;27;20057;-84
2022/05/14 03:34:54;;;;;;;19.83;5.22;;;11.60;99.90;;;;;;4231209;28;20061;-84
2022/05/14 03:36:55;;;;;;;32.42;6.25;;;11.60;99.90;;;;;;4249078;27;20043;-84
2022/05/14 03:38:56;;;;;;;33.40;5.03;;;11.60;99.90;;;;;;4249012;27;20039;-84
2022/05/14 03:40:56;;;;;;;31.30;5.28;;;11.50;99.90;;;;;;4249288;27;20046;-84
2022/05/14 03:42:57;;;;;;;25.52;6.10;;;11.60;99.90;;;;;;4248572;27;20123;-84
2022/05/14 03:44:58;;;;;;;29.20;5.38;;;11.60;99.90;;;;;;4249389;27;20126;-84
2022/05/14 03:46:59;;;;;;;39.08;6.20;;;11.50;99.90;;;;;;4230986;28;20043;-84
2022/05/14 03:49:00;;;;;;;35.10;6.55;;;11.60;99.90;;;;;;4249149;27;20083;-84
2022/05/14 03:51:01;;;;;;;30.27;5.05;;;11.60;99.90;;;;;;4249137;27;20498;-83
2022/05/14 03:53:01;;;;;;;30.88;6.05;;;11.50;99.90;;;;;;4249078;27;20180;-84
2022/05/14 03:55:02;;;;;;;27.92;5.05;;;11.60;99.90;;;;;;4249204;27;20039;-84
2022/05/14 03:57:03;;;;;;;29.70;5.60;;;11.60;99.90;;;;;;4248560;27;20043;-84
2022/05/14 03:59:04;;;;;;;34.80;5.32;;;11.50;99.90;;;;;;4248933;27;20039;-84
2022/05/14 04:01:05;;;;;;;40.20;6.50;;;11.60;99.90;;;;;;4248789;27;20188;-83
2022/05/14 04:03:07;;;;;;;23.73;5.18;;;11.60;99.90;;;;;;4248945;27;20157;-84
2022/05/14 04:05:08;;;;;;;34.00;5.68;;;11.60;99.90;;;;;;4248247;27;20050;-84
2022/05/14 04:07:10;;;;;;;26.67;6.13;;;11.50;99.90;;;;;;4247693;27;20107;-84
2022/05/14 04:09:11;;;;;;;33.55;5.47;;;11.50;99.90;;;;;;4248646;27;20126;-84
2022/05/14 04:11:11;;;;;;;26.33;5.57;;;11.50;99.90;;;;;;4247573;27;20513;-84
2022/05/14 04:13:12;;;;;;;28.83;4.55;;;11.20;99.90;;;;;;4248218;27;20479;-84
2022/05/14 04:15:15;;;;;;;30.92;5.15;;;11.50;99.90;;;;;;4248881;27;20035;-84
2022/05/14 04:17:15;;;;;;;25.30;4.47;;;11.70;99.90;;;;;;4230584;28;20047;-84
2022/05/14 04:19:18;;;;;;;21.48;4.72;;;11.50;99.90;;;;;;4248663;27;20112;-84
2022/05/14 04:21:19;;;;;;;22.63;5.35;;;11.50;99.90;;;;;;4248560;27;20039;-84
2022/05/14 04:23:21;;;;;;;27.15;5.70;;;11.50;99.90;;;;;;4248204;27;20505;-84
2022/05/14 04:25:22;;;;;;;23.40;5.05;;;11.50;99.90;;;;;;4248557;27;20051;-84
2022/05/14 04:27:23;;;;;;;29.65;6.18;;;11.50;99.90;;;;;;4237969;27;20047;-83
2022/05/14 04:29:24;;;;;;;22.70;6.15;;;11.50;99.90;;;;;;4242611;27;20099;-83
2022/05/14 04:31:24;;;;;;;27.08;6.95;;;11.50;99.90;;;;;;4247903;27;20047;-83
2022/05/14 04:33:27;;;;;;;38.17;6.25;;;12.00;99.90;;;;;;4244856;27;20039;-83
2022/05/14 04:35:27;;;;;;;26.63;5.38;;;11.50;99.90;;;;;;4248265;27;20479;-82
2022/05/14 04:37:28;;;;;;;27.77;4.90;;;11.50;99.90;;;;;;4248326;27;20054;-83
2022/05/14 04:39:32;;;;;;;36.45;6.13;;;11.60;99.90;;;;;;4248084;27;20506;-84
2022/05/14 04:41:33;;;;;;;30.45;5.15;;;11.50;99.90;;;;;;4248298;27;20051;-83
2022/05/14 04:43:34;;;;;;;25.25;5.45;;;11.60;99.90;;;;;;4247554;27;20055;-83
2022/05/14 04:45:34;;;;;;;30.58;6.55;;;12.10;99.90;;;;;;4243276;27;20100;-83
2022/05/14 04:47:36;;;;;;;29.25;5.18;;;11.60;99.90;;;;;;4247821;27;20045;-83
2022/05/14 04:49:41;;;;;;;21.77;4.45;;;11.60;99.90;;;;;;4229563;28;20056;-83
2022/05/14 04:51:42;;;;;;;19.13;5.68;;;11.60;99.90;;;;;;4247907;27;20517;-82
2022/05/14 04:53:43;;;;;;;28.73;6.05;;;11.60;99.90;;;;;;4247166;27;20043;-84
2022/05/14 04:55:43;;;;;;;29.42;5.57;;;11.70;99.90;;;;;;4247564;27;20047;-84
2022/05/14 04:57:44;;;;;;;26.85;5.32;;;11.60;99.90;;;;;;4229460;28;20488;-83
2022/05/14 04:59:45;;;;;;;32.78;7.07;;;11.70;99.90;;;;;;4247807;27;20031;-83
2022/05/14 05:04:05;;;;;;;30.38;6.28;;;11.80;99.90;;;;;;4247271;27;20502;-84
2022/05/14 05:06:08;;;;;;;22.13;3.90;;;11.80;99.90;;;;;;4247764;27;20039;-84
2022/05/14 05:08:09;;;;;;;30.17;5.38;;;11.90;99.90;;;;;;4247536;27;20039;-83
2022/05/14 05:10:10;;;;;;;30.02;5.90;;;11.90;99.90;;;;;;4247653;27;20087;-83
2022/05/14 05:12:11;;;;;;;31.40;5.05;;;12.00;99.90;;;;;;4246939;27;20047;-83
2022/05/14 05:14:12;;;;;;;21.90;4.88;;;12.10;99.90;;;;;;4246208;27;20436;-83
2022/05/14 05:16:13;;;;;;;32.22;5.65;;;12.10;99.90;;;;;;4247361;27;20209;-83
2022/05/14 05:18:15;;;;;;;22.58;4.95;;;12.60;99.90;;;;;;4247575;27;20062;-83
2022/05/14 05:20:17;;;;;;;19.63;4.97;;;12.20;99.90;;;;;;4247575;27;20495;-83
2022/05/14 05:22:18;;;;;;;23.17;5.70;;;12.30;99.90;;;;;;4244981;27;20042;-84
2022/05/14 05:24:18;;;;;;;21.77;5.15;;;12.40;99.90;;;;;;4247231;27;20395;-83
2022/05/14 05:26:20;;;;;;;24.95;6.57;;;12.40;99.90;;;;;;4246888;27;20035;-83
2022/05/14 05:28:21;;;;;;;26.00;4.43;;;12.50;99.90;;;;;;4247255;27;20038;-83
2022/05/14 05:30:22;;;;;;;24.70;5.38;;;12.60;99.90;;;;;;4237288;27;20495;-82
2022/05/14 05:32:23;;;;;;;24.17;4.90;;;12.60;99.90;;;;;;4229093;28;20076;-83
2022/05/14 05:34:24;;;;;;;19.80;4.95;;;12.70;99.90;;;;;;4247228;27;20053;-83
2022/05/14 05:36:26;;;;;;;22.15;4.68;;;12.70;99.90;;;;;;4246903;27;20046;-83
2022/05/14 05:38:26;;;;;;;24.90;4.13;;;12.80;99.90;;;;;;4247006;27;20126;-84
2022/05/14 05:40:27;;;;;;;16.90;3.80;;;12.70;99.90;;;;;;4245761;27;20055;-84
2022/05/14 05:42:28;;;;;;;24.13;4.90;;;12.70;99.90;;;;;;4247252;28;20071;-83
2022/05/14 05:44:29;;;;;;;28.95;5.20;;;12.70;99.90;;;;;;4247140;28;20043;-83
2022/05/14 05:46:33;;;;;;;27.30;4.50;;;12.70;99.90;;;;;;4247314;28;20110;-82
2022/05/14 05:48:33;;;;;;;26.17;4.88;;;12.70;99.90;;;;;;4246828;28;20487;-83
2022/05/14 05:50:35;;;;;;;27.40;5.47;;;12.80;99.90;;;;;;4247084;28;20047;-83
2022/05/14 05:52:35;;;;;;;18.13;4.55;;;12.90;99.90;;;;;;4228561;28;20059;-83
2022/05/14 05:56:59;;;;;;;;;;;13.10;99.90;;;;;;4243267;27;20046;-83
2022/05/14 05:59:00;;;;;;;20.52;4.13;;;13.30;99.90;;;;;;4250802;27;19919;-83
2022/05/14 06:01:02;;;;;;;27.60;6.85;;;13.20;99.90;;;;;;4250261;27;20042;-82
2022/05/14 06:03:03;;;;;;;20.15;4.78;;;13.30;99.90;;;;;;4250339;27;20039;-83
2022/05/14 06:05:05;;;;;;;22.48;4.80;;;13.40;99.90;;;;;;4250575;27;20073;-83
2022/05/14 06:07:06;;;;;;;20.60;4.75;;;13.50;99.90;;;;;;4250244;27;20039;-82
2022/05/14 06:09:08;;;;;;;22.60;4.57;;;13.60;99.90;;;;;;4250391;27;20543;-84
2022/05/14 06:11:09;;;;;;;23.10;3.88;;;13.70;99.90;;;;;;4250648;27;20143;-83
2022/05/14 06:13:10;;;;;;;17.15;3.88;;;13.80;99.90;;;;;;4238181;27;20104;-82
2022/05/14 06:15:13;;;;;;;22.85;5.03;;;14.00;99.90;;;;;;4243362;27;20043;-83
2022/05/14 06:17:14;;;;;;;22.42;3.95;;;14.00;99.90;;;;;;4249892;27;20506;-82
2022/05/14 06:19:14;;;;;;;24.48;5.00;;;14.10;99.90;;;;;;4232114;28;20055;-83
2022/05/14 06:21:15;;;;;;;25.23;5.20;;;14.00;99.90;;;;;;4247462;27;20040;-83
2022/05/14 06:23:16;;;;;;;23.02;4.47;;;14.10;99.90;;;;;;4248672;27;20035;-83
2022/05/14 06:25:17;;;;;;;23.05;4.43;;;14.10;99.90;;;;;;4249130;27;20043;-83
2022/05/14 06:27:18;;;;;;;18.90;4.65;;;14.20;99.90;;;;;;4250195;27;20484;-83
2022/05/14 06:29:19;;;;;;;24.80;4.63;;;14.20;99.90;;;;;;4249487;27;20050;-83
2022/05/14 06:31:19;;;;;;;23.65;4.65;;;14.20;99.90;;;;;;4249915;27;20483;-83
2022/05/14 06:33:20;;;;;;;23.27;4.55;;;14.30;99.90;;;;;;4250029;27;20092;-83
2022/05/14 06:35:21;;;;;;;21.42;3.50;;;14.30;99.90;;;;;;4249993;27;20043;-83
2022/05/14 06:37:22;;;;;;;19.75;3.00;;;14.40;99.90;;;;;;4249595;27;20103;-83
2022/05/14 06:39:23;;;;;;;22.85;3.83;;;14.50;99.90;;;;;;4249896;27;20043;-82
2022/05/14 06:41:23;;;;;;;24.25;5.68;;;14.60;99.90;;;;;;4249295;27;20058;-82
2022/05/14 06:43:24;;;;;;;18.40;3.00;;;14.60;99.90;;;;;;4249998;27;20055;-82
2022/05/14 06:45:25;;;;;;;23.48;3.25;;;14.80;99.90;;;;;;4249640;27;20047;-82
2022/05/14 06:47:26;;;;;;;27.60;5.70;;;14.90;99.90;;;;;;4249754;27;20039;-83
2022/05/14 06:49:27;;;;;;;15.50;3.85;;;14.90;99.90;;;;;;4249973;27;20550;-83
2022/05/14 06:51:29;;;;;;;24.85;4.22;;;15.00;99.90;;;;;;4231203;28;20043;-82
2022/05/14 06:53:34;;;;;;;16.90;3.22;;;15.10;99.90;;;;;;4249224;27;20086;-83
2022/05/14 06:55:38;;;;;;;15.70;3.30;;;15.10;99.90;;;;;;4249583;27;20406;-82
2022/05/14 06:57:38;;;;;;;12.07;2.67;;;15.10;99.90;;;;;;4240636;27;20047;-83
2022/05/14 06:59:41;;;;;;;16.92;4.57;;;15.00;99.90;;;;;;4249763;27;20115;-83
2022/05/14 07:01:45;;;;;;;16.67;2.80;;;14.90;99.90;;;;;;4249792;27;20043;-83
2022/05/14 07:08:26;;;;;;;16.98;2.45;;;15.00;99.90;;;;;;4241300;27;20050;-83
2022/05/14 07:10:27;;;;;;;13.27;2.92;;;15.20;99.90;;;;;;4249354;27;20127;-83
2022/05/14 07:12:28;;;;;;;21.83;4.40;;;15.30;99.90;;;;;;4231044;28;20599;-83
2022/05/14 07:14:30;;;;;;;17.80;3.72;;;15.50;99.90;;;;;;4249532;27;20146;-82
2022/05/14 07:16:30;;;;;;;12.50;3.35;;;15.60;99.90;;;;;;4248854;27;20495;-83
2022/05/14 07:18:32;;;;;;;13.23;3.35;;;15.80;99.90;;;;;;4245730;27;20039;-83
2022/05/14 07:20:33;;;;;;;10.57;2.95;;;15.90;99.90;;;;;;4249596;27;20071;-83
2022/05/14 07:22:34;;;;;;;14.55;2.83;;;16.10;99.90;;;;;;4243049;27;20127;-83
2022/05/14 07:24:35;;;;;;;24.73;3.63;;;16.30;99.90;;;;;;4248804;27;20047;-82
2022/05/14 07:26:38;;;;;;;13.48;2.70;;;16.30;99.90;;;;;;4249402;27;20046;-83
2022/05/14 07:28:39;;;;;;;17.05;3.17;;;16.50;99.90;;;;;;4213372;28;20385;-83
2022/05/14 07:30:39;;;;;;;13.38;2.20;;;16.60;99.70;;;;;;4249234;27;20086;-83
2022/05/14 07:32:40;;;;;;;13.38;3.08;;;16.70;99.50;;;;;;4249021;27;20043;-83
2022/05/14 07:34:42;;;;;;;13.23;2.60;;;16.80;99.10;;;;;;4247904;27;20514;-83
2022/05/14 07:36:53;;;;;;;10.60;2.78;;;16.90;98.90;;;;;;4249611;27;20054;-82
2022/05/14 07:38:59;;;;;;;19.00;4.93;;;17.10;98.60;;;;;;4249746;27;20043;-83
2022/05/14 07:40:59;;;;;;;12.40;2.35;;;17.20;98.40;;;;;;4249451;27;20062;-83
2022/05/14 07:43:16;;;;;;;18.77;3.40;;;17.30;98.10;;;;;;4248161;27;20039;-83
2022/05/14 07:45:21;;;;;;;12.80;2.90;;;17.40;97.00;;;;;;4248805;27;20083;-83
2022/05/14 07:47:23;;;;;;;17.85;3.60;;;;;;;;;;4249244;27;20529;-83
2022/05/14 07:49:25;;;;;;;13.77;3.83;;;;;;;;;;4248963;27;20054;-83
2022/05/14 07:51:26;;;;;;;13.93;2.65;;;;;;;;;;4248805;27;20043;-83
2022/05/14 07:53:30;;;;;;;14.07;3.40;;;;;;;;;;4248146;27;20039;-83
2022/05/14 07:55:33;;;;;;;15.43;3.28;;;;;;;;;;4250586;27;20047;-83
2022/05/14 07:57:34;;;;;;;16.90;4.38;;;;;;;;;;4249586;27;20067;-82
2022/05/14 07:59:35;;;;;;;14.25;2.75;;;;;;;;;;4249111;27;20127;-82
2022/05/14 08:01:36;;;;;;;12.43;3.15;;;;;;;;;;4244289;27;23251;-82
2022/05/14 08:03:37;;;;;;;21.73;3.80;;;;;;;;;;4238017;27;20078;-82
2022/05/14 08:05:38;;;;;;;12.98;2.50;;;;;;;;;;4242572;27;20380;-82
2022/05/14 08:07:40;;;;;;;13.77;2.42;;;;;;;;;;4230077;28;20392;-82
2022/05/14 08:09:40;;;;;;;13.55;2.50;;;17.50;97.10;;;;;;4241332;27;20043;-81
2022/05/14 08:11:41;;;;;;;21.35;5.20;;;;;;;;;;4248631;27;20055;-82
2022/05/14 08:13:43;;;;;;;10.50;2.88;;;;;;;;;;4229975;28;20039;-82
2022/05/14 08:15:45;;;;;;;18.77;2.83;;;;;;;;;;4248190;27;20043;-81
2022/05/14 08:17:46;;;;;;;12.38;3.20;;;18.50;93.40;;;;;;4248291;27;20495;-81
2022/05/14 08:19:49;;;;;;;16.75;2.58;;;19.10;92.20;;;;;;4248001;27;20399;-82
2022/05/14 08:26:28;;;;;;;13.63;2.55;;;19.50;91.60;;;;;;4247807;27;20051;-82
2022/05/14 08:28:30;;;;;;;20.10;3.25;;;19.60;91.00;;;;;;4248571;27;20106;-82
2022/05/14 08:30:33;;;;;;;14.95;3.00;;;19.40;90.30;;;;;;4248256;27;20512;-82
2022/05/14 08:32:34;;;;;;;14.10;3.33;;;19.40;90.30;;;;;;4244166;27;20069;-83
2022/05/14 08:34:34;;;;;;;15.38;3.33;;;19.50;90.50;;;;;;4231567;28;20545;-84
2022/05/14 08:36:36;;;;;;;17.70;2.50;;;;;;;;;;4231606;28;20043;-84
2022/05/14 08:38:37;;;;;;;19.67;3.42;;;;;;;;;;4231742;28;20543;-82
2022/05/14 08:40:40;;;;;;;10.80;2.28;;;;;;;;;;4230588;27;20395;-83
2022/05/14 08:42:41;;;;;;;15.75;4.63;;;19.70;90.40;;;;;;4244097;27;20065;-83
2022/05/14 08:44:45;;;;;;;13.70;2.90;;;;;;;;;;4229852;28;20122;-83
2022/05/14 08:46:47;;;;;;;10.88;2.40;;;;;;;;;;4247821;27;20043;-83
2022/05/14 08:48:50;;;;;;;15.02;3.53;;;;;;;;;;4248021;27;20039;-83
2022/05/14 08:51:03;;;;;;;15.10;3.05;;;;;;;;;;4247883;27;20043;-83
2022/05/14 08:53:06;;;;;;;17.95;2.90;;;;;;;;;;4247793;27;20035;-83
2022/05/14 08:55:09;;;;;;;9.50;2.50;;;;;;;;;;4245262;27;20058;-82
2022/05/14 08:57:29;;;;;;;13.38;2.42;;;;;;;;;;4248213;27;20113;-82
2022/05/14 08:59:30;;;;;;;14.00;3.05;;;;;;;;;;4246578;27;20502;-83
2022/05/14 09:01:33;;;;;;;15.65;3.45;;;;;;;;;;4247938;27;20047;-83
2022/05/14 09:03:34;;;;;;;9.88;2.30;;;;;;;;;;4227615;28;20052;-82
2022/05/14 09:05:37;;;;;;;14.35;3.60;;;;;;;;;;4246213;27;20084;-83
2022/05/14 09:07:38;;;;;;;12.95;2.70;;;;;;;;;;4247193;27;20479;-83
2022/05/14 09:09:49;;;;;;;16.27;2.75;;;;;;;;;;4247843;27;20109;-82
2022/05/14 09:11:55;;;;;;;14.77;2.63;;;;;;;;;;4247390;27;20050;-83
2022/05/14 09:13:57;;;;;;;12.68;2.40;;;;;;;;;;4229210;28;20046;-82
2022/05/14 09:16:02;;;;;;;15.13;2.45;;;;;;;;;;4229522;28;20043;-82
2022/05/14 09:18:04;;;;;;;10.32;2.58;;;;;;;;;;4227576;28;20453;-82
2022/05/14 09:20:06;;;;;;;11.77;2.67;;;;;;;;;;4221268;28;20051;-82
2022/05/14 09:22:10;;;;;;;18.02;3.08;;;;;;;;;;4247647;27;20099;-82
2022/05/14 09:24:26;;;;;;;13.73;2.22;;;;;;;;;;4229210;28;20051;-82
2022/05/14 09:26:33;;;;;;;15.43;2.95;;;;;;;;;;4247000;27;20047;-82
2022/05/14 09:28:41;;;;;;;12.60;2.58;;;;;;;;;;4247293;27;20483;-82
2022/05/14 09:30:52;;;;;;;14.45;2.63;;;20.30;88.30;;;;;;4228405;28;20074;-83
2022/05/14 09:32:53;;;;;;;13.95;3.20;;;;;;;;;;4243436;27;20043;-83
2022/05/14 09:35:03;;;;;;;13.07;2.83;;;;;;;;;;4247253;27;20042;-81
2022/05/14 09:37:09;;;;;;;18.00;3.83;;;;;;;;;;4246504;27;20539;-82
2022/05/14 09:39:12;;;;;;;13.98;2.85;;;;;;;;;;4247326;27;20114;-82
2022/05/14 09:41:19;;;;;;;10.25;2.35;;;;;;;;;;4228682;28;20050;-82
2022/05/14 09:43:20;;;;;;;15.70;2.70;;;;;;;;;;4242786;28;20035;-83
2022/05/14 09:45:23;;;;;;;14.00;2.47;;;21.70;73.10;;;;;;4243655;28;20510;-82
2022/05/14 09:47:25;;;;;;;17.90;3.38;;;21.40;70.10;;;;;;4241061;28;20054;-83
2022/05/14 09:49:26;;;;;;;10.32;2.45;;;21.30;71.40;;;;;;4247722;28;20047;-83
2022/05/14 09:51:29;;;;;;;13.15;2.88;;;;;;;;;;4247589;28;20050;-83
2022/05/14 09:53:32;;;;;;;15.88;3.38;;;;;;;;;;4246988;28;20559;-83
2022/05/14 09:55:36;;;;;;;18.58;3.33;;;;;;;;;;4229032;28;20411;-82
2022/05/14 09:57:54;;;;;;;14.98;2.67;;;;;;;;;;4247957;28;20602;-84
2022/05/14 10:00:09;;;;;;;11.63;2.40;;;;;;;;;;4251420;28;20043;-83
2022/05/14 10:02:23;;;;;;;14.20;2.55;;;;;;;;;;4248353;28;20187;-83
2022/05/14 10:04:42;;;;;;;15.70;2.40;;;;;;;;;;4248850;28;20106;-83
2022/05/14 10:06:56;;;;;;;15.57;2.67;;;;;;;;;;4245562;28;20027;-85
2022/05/14 10:08:57;;;;;;;12.45;2.67;;;;;;;;;;4247489;28;20406;-83
2022/05/14 10:11:21;;;;;;;17.08;4.03;;;;;;;;;;4246954;28;20047;-83
2022/05/14 10:13:37;;;;;;;14.05;2.80;;;;;;;;;;4231272;28;20051;-84
2022/05/14 10:15:46;;;;;;;15.15;2.45;;;;;;;;;;4217892;28;20512;-83
2022/05/14 10:17:47;;;;;;;13.13;2.92;;;;;;;;;;4230682;28;20380;-84
2022/05/14 10:19:57;;;;;;;13.88;3.25;;;;;;;;;;4230408;28;20066;-83
2022/05/14 10:22:17;;;;;;;10.18;2.90;;;;;;;;;;4229383;28;20027;-84
2022/05/14 10:26:53;;;;;;;17.83;3.40;;;;;;;;;;4229446;28;20059;-84
2022/05/14 10:29:12;;;;;;;12.73;3.00;;;;;;;;;;4230022;28;20036;-84
2022/05/14 10:31:32;;;;;;;11.00;2.70;;;;;;;;;;4230320;28;20071;-84
2022/05/14 10:33:33;;;;;;;11.18;2.42;;;;;;;;;;4230067;28;20506;-84
2022/05/14 10:35:43;;;;;;;17.35;2.67;;;;;;;;;;4230197;28;20488;-84
2022/05/14 10:37:50;;;;;;;14.02;3.17;;;;;;;;;;4230598;28;20080;-82
2022/05/14 10:40:03;;;;;;;10.98;2.83;;;;;;;;;;4230603;28;20415;-84
2022/05/14 10:42:11;;;;;;;14.60;2.90;;;;;;;;;;4231872;28;20063;-83
2022/05/14 10:44:33;;;;;;;13.27;2.50;;;;;;;;;;4233304;28;20054;-83
2022/05/14 10:46:35;;;;;;;16.00;2.83;;;;;;;;;;4215004;28;20101;-83
2022/05/14 10:48:45;;;;;;;13.55;2.63;;;;;;;;;;4233418;28;20503;-83
2022/05/14 10:50:47;;;;;;;13.18;2.53;;;;;;;;;;4233310;28;20547;-84
2022/05/14 10:52:50;;;;;;;11.70;2.88;;;;;;;;;;4214356;28;20048;-84
2022/05/14 10:54:51;;;;;;;12.52;3.00;;;;;;;;;;4215193;28;20051;-84
2022/05/14 10:56:53;;;;;;;14.73;2.92;;;;;;;;;;4232744;28;20130;-83
2022/05/14 10:58:58;;;;;;;15.20;3.67;;;;;;;;;;4233017;28;20479;-83
2022/05/14 11:00:59;;;;;;;14.68;3.40;;;;;;;;;;4233406;28;20036;-84
2022/05/14 11:03:02;;;;;;;14.60;2.78;;;;;;;;;;4233959;28;20043;-83
2022/05/14 11:05:05;;;;;;;14.45;3.30;;;;;;;;;;4233474;28;20395;-83
2022/05/14 11:07:14;;;;;;;14.75;3.00;;;;;;;;;;4234253;28;20566;-84
2022/05/14 11:09:16;;;;;;;13.30;3.33;;;;;;;;;;4216020;28;20516;-83
2022/05/14 11:11:22;;;;;;;14.02;2.63;;;;;;;;;;4215778;28;20040;-83
2022/05/14 11:13:24;;;;;;;15.05;2.80;;;;;;;;;;4232840;28;20044;-84
2022/05/14 11:15:27;;;;;;;15.75;2.70;;;;;;;;;;4232830;28;20535;-82